createdAt,value
2022-08-17T00:00:18.294Z,99.90
2022-08-17T00:03:04.219Z,99.90
2022-08-17T00:05:36.035Z,99.90
2022-08-17T00:08:04.607Z,99.90
2022-08-17T00:10:33.090Z,99.90
2022-08-17T00:13:07.043Z,99.90
2022-08-17T00:15:36.027Z,99.90
2022-08-17T00:18:04.821Z,99.90
2022-08-17T00:20:56.249Z,99.90
2022-08-17T00:23:24.675Z,99.90
2022-08-17T00:25:53.580Z,99.90
2022-08-17T00:28:23.038Z,99.90
2022-08-17T00:30:53.139Z,99.90
2022-08-17T00:33:25.648Z,99.90
2022-08-17T00:35:54.891Z,99.90
2022-08-17T00:38:23.609Z,99.90
2022-08-17T00:40:55.920Z,99.90
2022-08-17T00:43:32.694Z,99.90
2022-08-17T00:46:01.652Z,99.90
2022-08-17T00:48:30.897Z,99.90
2022-08-17T00:51:08.170Z,99.90
2022-08-17T00:53:39.677Z,99.90
2022-08-17T00:56:11.780Z,99.90
2022-08-17T00:58:42.009Z,99.90
2022-08-17T01:01:11.800Z,99.90
2022-08-17T01:03:43.929Z,99.90
2022-08-17T01:06:12.311Z,99.90
2022-08-17T01:08:41.627Z,99.90
2022-08-17T01:11:10.295Z,99.90
2022-08-17T01:13:42.026Z,99.90
2022-08-17T01:16:18.310Z,99.90
2022-08-17T01:18:49.108Z,99.90
2022-08-17T01:21:24.119Z,99.90
2022-08-17T01:23:53.621Z,99.90
2022-08-17T01:26:22.444Z,99.90
2022-08-17T01:28:54.168Z,99.90
2022-08-17T01:31:24.917Z,99.90
2022-08-17T01:33:53.598Z,99.90
2022-08-17T01:36:21.761Z,99.90
2022-08-17T01:38:49.805Z,99.90
2022-08-17T01:41:22.664Z,99.90
2022-08-17T01:43:54.856Z,99.90
2022-08-17T01:46:27.005Z,99.90
2022-08-17T01:48:57.562Z,99.90
2022-08-17T01:51:30.274Z,99.90
2022-08-17T01:54:01.172Z,99.90
2022-08-17T01:56:33.507Z,99.90
2022-08-17T01:59:01.891Z,99.90
2022-08-17T02:01:32.628Z,99.90
2022-08-17T02:04:01.880Z,99.90
2022-08-17T02:06:45.022Z,99.90
2022-08-17T02:09:19.898Z,99.90
2022-08-17T02:11:52.925Z,99.90
2022-08-17T02:14:22.719Z,99.90
2022-08-17T02:16:50.999Z,99.90
2022-08-17T02:19:19.840Z,99.90
2022-08-17T02:21:50.639Z,99.90
2022-08-17T02:25:00.522Z,99.90
2022-08-17T02:27:12.544Z,99.90
2022-08-17T02:29:40.797Z,99.90
2022-08-17T02:32:20.823Z,99.90
2022-08-17T02:34:56.185Z,99.90
2022-08-17T02:37:24.259Z,99.90
2022-08-17T02:39:52.375Z,99.90
2022-08-17T02:42:27.885Z,99.90
2022-08-17T02:44:56.552Z,99.90
2022-08-17T02:47:25.621Z,99.90
2022-08-17T02:49:55.619Z,99.90
2022-08-17T02:52:43.771Z,99.90
2022-08-17T02:55:17.453Z,99.90
2022-08-17T02:57:47.574Z,99.90
2022-08-17T03:00:19.261Z,99.90
2022-08-17T03:02:47.349Z,99.90
2022-08-17T03:05:19.059Z,99.90
2022-08-17T03:07:47.128Z,99.90
2022-08-17T03:10:18.975Z,99.90
2022-08-17T03:12:51.092Z,99.90
2022-08-17T03:15:22.000Z,99.90
2022-08-17T03:17:50.948Z,99.90
2022-08-17T03:20:19.792Z,99.90
2022-08-17T03:22:53.593Z,99.90
2022-08-17T03:25:26.816Z,99.90
2022-08-17T03:27:56.762Z,99.90
2022-08-17T03:30:26.649Z,99.90
2022-08-17T03:32:56.797Z,99.90
2022-08-17T03:35:26.949Z,99.90
2022-08-17T03:38:00.040Z,99.90
2022-08-17T03:40:55.447Z,99.90
2022-08-17T03:43:23.427Z,99.90
2022-08-17T03:46:10.954Z,99.90
2022-08-17T03:49:16.609Z,99.90
2022-08-17T03:52:02.061Z,99.90
2022-08-17T03:54:47.416Z,99.90
2022-08-17T03:57:15.570Z,99.90
2022-08-17T03:59:45.313Z,99.90
2022-08-17T04:02:18.662Z,99.90
2022-08-17T04:04:46.965Z,99.90
2022-08-17T04:07:15.041Z,99.90
2022-08-17T04:09:43.587Z,99.90
2022-08-17T04:12:12.321Z,99.90
2022-08-17T04:14:52.065Z,99.90
2022-08-17T04:17:28.700Z,99.90
2022-08-17T04:19:57.216Z,99.90
2022-08-17T04:22:30.152Z,99.90
2022-08-17T04:25:04.058Z,99.90
2022-08-17T04:27:32.185Z,99.90
2022-08-17T04:30:00.296Z,99.90
2022-08-17T04:33:02.256Z,99.90
2022-08-17T04:35:20.958Z,99.90
2022-08-17T04:37:49.213Z,99.90
2022-08-17T04:40:35.080Z,99.90
2022-08-17T04:43:05.201Z,99.90
2022-08-17T04:45:33.237Z,99.90
2022-08-17T04:48:03.188Z,99.90
2022-08-17T04:50:31.201Z,99.90
2022-08-17T04:52:59.534Z,99.90
2022-08-17T04:55:27.791Z,99.90
2022-08-17T04:57:55.857Z,99.90
2022-08-17T05:00:25.882Z,99.90
2022-08-17T05:02:56.221Z,99.90
2022-08-17T05:05:28.212Z,99.90
2022-08-17T05:07:57.942Z,99.90
2022-08-17T05:10:28.750Z,99.90
2022-08-17T05:13:00.861Z,99.90
2022-08-17T05:15:29.790Z,99.90
2022-08-17T05:18:01.592Z,99.90
2022-08-17T05:20:31.741Z,99.90
2022-08-17T05:23:02.009Z,99.90
2022-08-17T05:25:34.420Z,99.90
2022-08-17T05:28:04.970Z,99.90
2022-08-17T05:30:35.089Z,99.90
2022-08-17T05:33:05.423Z,99.90
2022-08-17T05:35:36.562Z,99.90
2022-08-17T05:38:04.863Z,99.90
2022-08-17T05:40:36.403Z,99.90
2022-08-17T05:43:09.968Z,99.90
2022-08-17T05:45:55.147Z,99.90
2022-08-17T05:48:39.612Z,99.90
2022-08-17T05:51:47.076Z,99.90
2022-08-17T05:54:25.455Z,99.90
2022-08-17T05:57:08.586Z,99.90
2022-08-17T05:59:48.528Z,99.90
2022-08-17T06:02:23.437Z,99.90
2022-08-17T06:05:10.053Z,99.90
2022-08-17T06:07:48.943Z,99.90
2022-08-17T06:10:29.049Z,99.90
2022-08-17T06:13:10.103Z,99.90
2022-08-17T06:15:50.504Z,99.90
2022-08-17T06:18:19.483Z,99.90
2022-08-17T06:20:55.016Z,99.90
2022-08-17T06:23:28.296Z,99.90
2022-08-17T06:26:02.129Z,99.90
2022-08-17T06:28:37.236Z,99.90
2022-08-17T06:31:14.051Z,99.90
2022-08-17T06:33:47.545Z,99.90
2022-08-17T06:36:40.239Z,99.90
2022-08-17T06:39:24.356Z,99.90
2022-08-17T06:42:05.624Z,99.90
2022-08-17T06:44:43.312Z,99.90
2022-08-17T06:47:29.390Z,99.90
2022-08-17T06:50:07.225Z,99.90
2022-08-17T06:52:55.554Z,99.90
2022-08-17T06:55:34.430Z,99.90
2022-08-17T06:58:15.896Z,99.90
2022-08-17T07:00:48.062Z,99.90
2022-08-17T07:03:27.516Z,99.90
2022-08-17T07:05:59.983Z,99.90
2022-08-17T07:08:35.588Z,99.90
2022-08-17T07:11:11.059Z,99.90
2022-08-17T07:13:51.155Z,99.90
2022-08-17T07:16:24.921Z,99.90
2022-08-17T07:18:55.432Z,99.90
2022-08-17T07:21:39.546Z,99.90
2022-08-17T07:24:30.050Z,99.90
2022-08-17T07:27:10.398Z,99.90
2022-08-17T07:29:42.007Z,99.90
2022-08-17T07:32:12.249Z,99.90
2022-08-17T07:35:11.313Z,99.90
2022-08-17T07:37:41.165Z,99.90
2022-08-17T07:40:26.485Z,99.90
2022-08-17T07:43:22.206Z,99.90
2022-08-17T07:46:17.096Z,99.90
2022-08-17T07:48:49.677Z,99.90
2022-08-17T07:51:27.369Z,99.90
2022-08-17T07:54:13.139Z,99.90
2022-08-17T07:56:46.428Z,99.90
2022-08-17T07:59:23.067Z,99.90
2022-08-17T08:02:06.137Z,99.90
2022-08-17T08:07:34.857Z,99.90
2022-08-17T08:10:08.959Z,99.80
2022-08-17T08:12:39.094Z,96.70
2022-08-17T08:15:17.855Z,95.40
2022-08-17T08:17:52.945Z,93.70
2022-08-17T08:20:47.773Z,92.40
2022-08-17T08:23:25.507Z,91.00
2022-08-17T08:26:04.601Z,89.30
2022-08-17T08:28:39.714Z,86.10
2022-08-17T08:31:24.461Z,82.00
2022-08-17T08:34:09.190Z,78.50
2022-08-17T08:37:16.328Z,76.80
2022-08-17T08:39:57.301Z,74.80
2022-08-17T08:42:34.401Z,73.20
2022-08-17T08:45:12.880Z,72.40
2022-08-17T08:47:56.325Z,71.70
2022-08-17T08:50:38.704Z,69.50
2022-08-17T08:53:27.549Z,67.10
2022-08-17T08:56:01.359Z,67.40
2022-08-17T08:58:41.597Z,65.90
2022-08-17T09:01:21.758Z,65.00
2022-08-17T09:04:19.982Z,65.10
2022-08-17T09:06:59.428Z,65.00
2022-08-17T09:09:40.349Z,66.50
2022-08-17T09:12:16.846Z,66.30
2022-08-17T09:14:59.562Z,66.00
2022-08-17T09:17:38.394Z,66.50
2022-08-17T09:20:27.436Z,67.30
2022-08-17T09:23:04.029Z,65.60
2022-08-17T09:25:36.099Z,67.50
2022-08-17T09:28:08.003Z,68.20
2022-08-17T09:30:42.140Z,66.00
2022-08-17T09:33:17.044Z,69.20
2022-08-17T09:35:50.689Z,70.50
2022-08-17T09:38:29.225Z,70.20
2022-08-17T09:41:10.475Z,69.40
2022-08-17T09:43:44.692Z,70.00
2022-08-17T09:46:18.863Z,70.20
2022-08-17T09:48:55.292Z,71.30
2022-08-17T09:51:32.103Z,72.90
2022-08-17T09:54:20.910Z,72.70
2022-08-17T09:57:25.798Z,72.00
2022-08-17T09:59:58.313Z,70.10
2022-08-17T10:02:50.562Z,70.60
2022-08-17T10:05:23.770Z,71.30
2022-08-17T10:08:01.637Z,71.60
2022-08-17T10:10:36.973Z,72.00
2022-08-17T10:13:18.330Z,73.00
2022-08-17T10:15:53.579Z,73.30
2022-08-17T10:18:41.006Z,74.10
2022-08-17T10:21:37.916Z,74.40
2022-08-17T10:24:31.102Z,75.20
2022-08-17T10:27:02.383Z,76.70
2022-08-17T10:29:49.005Z,78.10
2022-08-17T10:32:27.590Z,79.10
2022-08-17T10:35:25.661Z,81.10
2022-08-17T10:38:30.256Z,81.60
2022-08-17T10:41:06.681Z,82.20
2022-08-17T10:43:44.750Z,82.80
2022-08-17T10:46:52.374Z,83.20
2022-08-17T10:49:33.996Z,81.70
2022-08-17T10:52:04.347Z,82.80
2022-08-17T10:54:41.976Z,81.40
2022-08-17T11:00:13.352Z,82.80
2022-08-17T11:02:49.619Z,80.20
2022-08-17T11:05:33.929Z,81.40
2022-08-17T11:08:26.723Z,81.20
2022-08-17T11:11:11.177Z,81.70
2022-08-17T11:13:47.613Z,82.20
2022-08-17T11:16:37.668Z,82.20
2022-08-17T11:19:38.394Z,83.20
2022-08-17T11:22:42.292Z,83.20
2022-08-17T11:25:16.998Z,82.50
2022-08-17T11:27:49.626Z,84.00
2022-08-17T11:30:44.359Z,83.20
2022-08-17T11:33:53.688Z,81.60
2022-08-17T11:36:38.478Z,82.00
2022-08-17T11:39:19.766Z,82.20
2022-08-17T11:41:55.096Z,82.80
2022-08-17T11:44:37.832Z,82.00
2022-08-17T11:47:35.857Z,83.40
2022-08-17T11:50:48.497Z,82.50
2022-08-17T11:56:59.970Z,83.90
2022-08-17T11:59:58.608Z,83.40
2022-08-17T12:02:38.880Z,82.70
2022-08-17T12:05:32.373Z,82.50
2022-08-17T12:08:12.427Z,82.40
2022-08-17T12:11:07.199Z,82.40
2022-08-17T12:13:45.482Z,82.90
2022-08-17T12:16:16.442Z,82.00
2022-08-17T12:18:51.562Z,80.20
2022-08-17T12:21:34.361Z,80.40
2022-08-17T12:24:11.035Z,80.70
2022-08-17T12:26:39.095Z,79.50
2022-08-17T12:29:18.211Z,80.80
2022-08-17T12:32:06.905Z,81.30
2022-08-17T12:34:41.241Z,82.00
2022-08-17T12:37:16.783Z,82.80
2022-08-17T12:39:55.647Z,83.20
2022-08-17T12:42:26.833Z,84.10
2022-08-17T12:44:54.935Z,85.50
2022-08-17T12:47:23.532Z,85.60
2022-08-17T12:49:53.414Z,85.30
2022-08-17T12:52:25.706Z,86.90
2022-08-17T12:54:58.028Z,87.50
2022-08-17T12:57:34.227Z,87.70
2022-08-17T13:00:15.838Z,87.60
2022-08-17T13:02:48.142Z,88.10
2022-08-17T13:05:23.772Z,88.30
2022-08-17T13:22:05.898Z,88.00
2022-08-17T13:25:09.231Z,88.50
2022-08-17T13:27:44.081Z,87.50
2022-08-17T13:30:14.815Z,87.00
2022-08-17T13:32:46.574Z,88.50
2022-08-17T13:35:41.709Z,88.90
2022-08-17T13:38:45.810Z,89.00
2022-08-17T13:41:34.829Z,89.40
2022-08-17T13:44:04.330Z,89.30
2022-08-17T13:46:36.156Z,87.40
2022-08-17T14:12:23.525Z,90.20
2022-08-17T14:14:52.181Z,90.10
2022-08-17T14:17:22.861Z,90.50
2022-08-17T14:19:51.897Z,90.10
2022-08-17T14:22:25.752Z,90.20
2022-08-17T14:24:54.209Z,89.50
2022-08-17T14:27:22.646Z,89.70
2022-08-17T14:29:53.275Z,90.00
2022-08-17T14:32:26.706Z,90.10
2022-08-17T14:34:57.199Z,90.10
2022-08-17T14:37:28.050Z,90.20
2022-08-17T14:39:56.986Z,90.30
2022-08-17T14:42:26.906Z,90.00
2022-08-17T14:44:55.701Z,90.20
2022-08-17T14:47:26.636Z,90.60
2022-08-17T14:49:54.674Z,90.80
2022-08-17T14:52:22.769Z,90.90
2022-08-17T14:54:52.166Z,91.10
2022-08-17T14:57:24.621Z,91.00
2022-08-17T15:00:02.989Z,91.00
2022-08-17T15:02:43.210Z,91.00
2022-08-17T15:05:11.301Z,91.30
2022-08-17T15:07:39.324Z,91.30
2022-08-17T15:10:08.983Z,91.60
2022-08-17T15:12:40.837Z,91.70
2022-08-17T15:15:12.321Z,91.70
2022-08-17T15:17:44.467Z,91.90
2022-08-17T15:20:16.189Z,91.90
2022-08-17T15:22:45.587Z,91.80
2022-08-17T15:25:14.161Z,92.10
2022-08-17T15:27:42.377Z,91.80
2022-08-17T15:30:11.815Z,92.20
2022-08-17T15:32:51.225Z,92.20
2022-08-17T15:35:27.288Z,92.40
2022-08-17T15:37:55.818Z,92.20
2022-08-17T15:40:23.877Z,92.40
2022-08-17T15:42:52.390Z,92.50
2022-08-17T15:45:24.608Z,92.50
2022-08-17T15:47:55.135Z,92.70
2022-08-17T15:50:23.389Z,92.80
2022-08-17T15:52:57.451Z,92.90
2022-08-17T15:55:26.907Z,93.10
2022-08-17T15:57:55.177Z,93.00
2022-08-17T16:00:24.736Z,92.90
2022-08-17T16:03:45.301Z,92.70
2022-08-17T16:05:42.784Z,92.90
2022-08-17T16:08:11.190Z,93.10
2022-08-17T16:10:39.432Z,93.10
2022-08-17T16:13:17.694Z,93.20
2022-08-17T16:15:51.110Z,93.30
2022-08-17T16:18:31.041Z,93.50
2022-08-17T16:21:21.548Z,93.60
2022-08-17T16:23:51.515Z,93.50
2022-08-17T16:26:20.178Z,93.70
2022-08-17T16:28:48.240Z,93.70
2022-08-17T16:31:16.698Z,93.90
2022-08-17T16:34:15.492Z,94.00
2022-08-17T16:36:37.510Z,94.10
2022-08-17T16:39:05.853Z,94.30
2022-08-17T16:41:45.557Z,94.50
2022-08-17T16:44:15.326Z,94.80
2022-08-17T16:46:45.612Z,94.90
2022-08-17T16:49:27.577Z,95.10
2022-08-17T16:52:06.928Z,95.20
2022-08-17T16:54:35.474Z,95.40
2022-08-17T16:57:05.389Z,95.60
2022-08-17T16:59:39.652Z,95.90
2022-08-17T17:02:16.343Z,96.10
2022-08-17T17:04:51.649Z,96.40
2022-08-17T17:07:55.055Z,96.60
2022-08-17T17:10:25.332Z,96.90
2022-08-17T17:13:02.164Z,97.10
2022-08-17T17:15:43.570Z,97.30
2022-08-17T17:18:14.846Z,97.50
2022-08-17T17:20:50.721Z,97.90
2022-08-17T17:23:38.328Z,98.10
2022-08-17T17:26:19.620Z,98.30
2022-08-17T17:29:01.946Z,98.60
2022-08-17T17:31:38.305Z,99.20
2022-08-17T17:34:11.876Z,99.00
2022-08-17T17:36:47.101Z,99.20
2022-08-17T17:39:34.479Z,99.40
2022-08-17T17:42:07.768Z,99.70
2022-08-17T17:44:40.886Z,99.90
2022-08-17T17:47:09.598Z,99.90
2022-08-17T17:49:40.886Z,99.90
2022-08-17T17:52:19.498Z,99.90
2022-08-17T17:55:04.223Z,99.90
2022-08-17T17:57:44.225Z,99.90
2022-08-17T18:00:16.350Z,99.90
2022-08-17T18:02:57.449Z,99.90
2022-08-17T18:05:48.643Z,99.90
2022-08-17T18:08:37.780Z,99.90
2022-08-17T18:11:34.732Z,99.90
2022-08-17T18:14:15.319Z,99.90
2022-08-17T18:16:44.556Z,99.90
2022-08-17T18:19:14.473Z,99.90
2022-08-17T18:21:46.987Z,99.90
2022-08-17T18:24:16.548Z,99.90
2022-08-17T18:26:54.029Z,99.90
2022-08-17T18:29:38.059Z,99.90
2022-08-17T18:32:18.575Z,99.90
2022-08-17T18:34:49.567Z,99.90
2022-08-17T18:37:38.506Z,99.90
2022-08-17T18:40:31.066Z,99.90
2022-08-17T18:43:12.310Z,99.90
2022-08-17T18:45:45.819Z,99.90
2022-08-17T18:48:22.515Z,99.90
2022-08-17T18:50:53.663Z,99.90
2022-08-17T18:53:35.955Z,99.90
2022-08-17T18:56:24.517Z,99.90
2022-08-17T18:58:59.722Z,99.90
2022-08-17T19:01:52.210Z,99.90
2022-08-17T19:04:36.725Z,99.90
2022-08-17T19:07:33.665Z,99.90
2022-08-17T19:10:15.155Z,99.90
2022-08-17T19:12:50.033Z,99.90
2022-08-17T19:15:23.442Z,99.90
2022-08-17T19:17:56.819Z,99.90
2022-08-17T19:20:31.109Z,99.90
2022-08-17T19:23:12.303Z,99.90
2022-08-17T19:25:46.088Z,99.90
2022-08-17T19:28:22.971Z,99.90
2022-08-17T19:30:55.836Z,99.90
2022-08-17T19:33:24.245Z,99.90
2022-08-17T19:36:02.007Z,99.90
2022-08-17T19:38:46.097Z,99.90
2022-08-17T19:41:23.305Z,99.90
2022-08-17T19:44:29.844Z,99.90
2022-08-17T19:47:10.483Z,99.90
2022-08-17T19:49:49.122Z,99.90
2022-08-17T19:52:32.877Z,99.90
2022-08-17T19:55:07.244Z,99.90
2022-08-17T19:57:49.137Z,99.90
2022-08-17T20:00:20.813Z,99.90
2022-08-17T20:02:56.134Z,99.90
2022-08-17T20:05:28.828Z,99.90
2022-08-17T20:08:01.915Z,99.90
2022-08-17T20:10:39.701Z,99.90
2022-08-17T20:13:12.186Z,99.90
2022-08-17T20:15:43.188Z,99.90
2022-08-17T20:18:22.275Z,99.90
2022-08-17T20:20:59.425Z,99.90
2022-08-17T20:23:42.307Z,99.90
2022-08-17T20:26:23.075Z,99.90
2022-08-17T20:29:36.829Z,99.90
2022-08-17T20:32:27.359Z,99.90
2022-08-17T20:35:20.475Z,99.90
2022-08-17T20:37:55.261Z,99.90
2022-08-17T20:40:30.341Z,99.90
2022-08-17T20:42:59.145Z,99.90
2022-08-17T20:46:00.604Z,99.90
2022-08-17T20:48:39.197Z,99.90
2022-08-17T20:51:25.977Z,99.90
2022-08-17T20:54:25.846Z,99.90
2022-08-17T20:56:57.831Z,99.90
2022-08-17T20:59:56.198Z,99.90
2022-08-17T21:02:27.143Z,99.90
2022-08-17T21:05:15.495Z,99.90
2022-08-17T21:07:55.620Z,99.90
2022-08-17T21:10:37.101Z,99.90
2022-08-17T21:13:41.573Z,99.90
2022-08-17T21:16:31.438Z,99.90
2022-08-17T21:19:16.958Z,99.90
2022-08-17T21:21:58.072Z,99.90
2022-08-17T21:24:41.980Z,99.90
2022-08-17T21:27:21.898Z,99.90
2022-08-17T21:30:12.325Z,99.90
2022-08-17T21:33:08.410Z,99.90
2022-08-17T21:35:50.366Z,99.90
2022-08-17T21:38:21.428Z,99.90
2022-08-17T21:40:53.891Z,99.90
2022-08-17T21:43:26.337Z,99.90
2022-08-17T21:46:01.659Z,99.90
2022-08-17T21:48:32.202Z,99.90
2022-08-17T21:51:12.260Z,99.90
2022-08-17T21:53:45.475Z,99.90
2022-08-17T21:56:25.383Z,99.90
2022-08-17T21:58:58.217Z,99.90
2022-08-17T22:01:29.344Z,99.90
2022-08-17T22:04:03.322Z,99.90
2022-08-17T22:06:36.974Z,99.90
2022-08-17T22:09:18.746Z,99.90
2022-08-17T22:11:57.775Z,99.90
2022-08-17T22:14:52.485Z,99.90
2022-08-17T22:17:20.515Z,99.90
2022-08-17T22:19:51.630Z,99.90
2022-08-17T22:22:30.792Z,99.90
2022-08-17T22:25:03.025Z,99.90
2022-08-17T22:27:52.207Z,99.90
2022-08-17T22:30:29.665Z,99.90
2022-08-17T22:32:58.766Z,99.90
2022-08-17T22:35:37.546Z,99.90
2022-08-17T22:38:33.749Z,99.90
2022-08-17T22:41:34.827Z,99.90
2022-08-17T22:44:15.503Z,99.90
2022-08-17T22:46:52.950Z,99.90
2022-08-17T22:49:27.356Z,99.90
2022-08-17T22:52:19.235Z,99.90
2022-08-17T22:55:09.351Z,99.90
2022-08-17T22:57:55.508Z,99.90
2022-08-17T23:00:37.430Z,99.90
2022-08-17T23:03:09.204Z,99.90
2022-08-17T23:05:38.401Z,99.90
2022-08-17T23:08:06.757Z,99.90
2022-08-17T23:10:36.084Z,99.90
2022-08-17T23:13:04.409Z,99.90
2022-08-17T23:15:34.036Z,99.90
2022-08-17T23:18:05.210Z,99.90
2022-08-17T23:20:35.609Z,99.90
2022-08-17T23:23:06.476Z,99.90
2022-08-17T23:25:36.064Z,99.90
2022-08-17T23:28:06.060Z,99.90
2022-08-17T23:30:39.646Z,99.90
2022-08-17T23:33:14.428Z,99.90
2022-08-17T23:35:42.947Z,99.90
2022-08-17T23:38:11.768Z,99.90
2022-08-17T23:40:42.527Z,99.90
2022-08-17T23:43:23.992Z,99.90
2022-08-17T23:45:55.293Z,99.90
2022-08-17T23:48:30.345Z,99.90
2022-08-17T23:51:04.297Z,99.90
2022-08-17T23:53:36.666Z,99.90
2022-08-17T23:56:10.094Z,99.90
2022-08-17T23:58:39.518Z,99.90
